Airfield :
LOGIN :

Register | Disclaimer

   EN    FR    IT 

 










Legend :    VFR   Marginal VFR   IFR   Intensive IFR   Very Intensive IFR
Visi :
Ceiling :
>= 8 km
>= 3000ft
5 to 8 km
1000 to 3000 ft
1500m to 5 km
500 to 1000 ft
800 to 1500m
200 to 500 ft
< 800m
< 200 ft
Symbols :   Thunderstorms  Fog  Heavy snow  Heavy precipitations  Wind > 20 kt
SIGMETs :     Misc.  Thunderstorms  Icing  Turbulence  Mountain Waves  Volcanic Ashes







- Airport Elevation : 84 ft
- Download approach charts


LFBC - Cazaux

CURRENT METAR :
  • 230200Z AUTO VRB03KT 9000 BKN007 OVC110 14/14 Q1019

EXPIRED METARs :
  • 230130Z AUTO 30004KT 7000 SCT005 BKN110 BKN140 14/14 Q1018
  • 230100Z AUTO 34005KT 5000 DZ BR FEW005 BKN100 15/14 Q1018
  • 230030Z AUTO 01003KT 6000 -RA FEW004/// SCT076/// BKN092/// ///TCU 15/15 Q1018
  • 230000Z AUTO VRB03KT 6000 -RA FEW004/// BKN084/// ///TCU 15/15 Q1019
  • 222330Z AUTO VRB02KT 7000 FEW003/// SCT078/// ///TCU 15/15 Q1018
  • 222300Z AUTO 35005KT 320V030 7000 -RA ///TCU 15/15 Q1018

Expired Forecast.
No reported NOTAMs for that airfield.



MET'MAP, your aeronautical weather chart ! - Copyright ORBIFLY December 2007 - Disclaimer

ORBIFLY MET'MAP TEAM :

Programming & Development : Alexandra Zaïnal
Concept & Development : Baudouin d'Aumeries
Co-Development & Prog : Marc-Olivier Méhu
Technical & hardware support : Manuel Goepfert

Contact : metmap@orbifly.com




SOURCES & CREDITS :

   NOAA